Villa Allende, Argentina
Current Conditions -  °F | °C
As of 8:00 PM on Monday 24 Nov 2014 (Local Time) from SACO Reporting Station
Scattered Clouds Scattered Clouds  
Wind Chill: 70°   Ceiling: Unl
Heat Index: 70°   Visibility: 6mi
Dew Point: 36°   Wind: 10mph
Humidity: 28%   Direction: 140°SE
Pressure: 29.97"   Gusts: NA
Location:  31.3°S, 64.3°W
Report Text: SACO 242300Z 14009KT 9999 SCT035 SCT100 21/02 Q1015
Loading
Personal Weather Stations






























Interactive Weather Map New forecast layout! Learn more

10-Day Weather Forecast

Advertisements
Track Severe Weather on mobile